<?xml version="1.0" encoding="UTF-8" standalone="no" ?>
<gpx xmlns="http://www.topografix.com/GPX/1/1" xmlns:xsi="http://www.w3.org/2001/XMLSchema-instance" xsi:schemaLocation="http://www.topografix.com/GPX/1/1 http://www.topografix.com/GPX/1/1/gpx.xsd" version="1.1" creator="VisuGPX - https://www.visugpx.com">
  <metadata>
    <name>GRPMelusine_J1_J4</name>
    <desc><![CDATA[gnerando idor: 13423745_12434211_12434219_12434226_12434235]]></desc>
  </metadata>
  <trk>
    <name><![CDATA[GRPMélusineJ1_BazogesPRondeFougere_20km-12434211]]></name>
    <extensions>
      <line xmlns="http://www.topografix.com/GPX/gpx_style/0/2">
        <color>00FFFF</color>
        <width>4</width>
      </line>
    </extensions>
    <trkseg>
      <trkpt lat="46.65715" lon="-0.91507">
        <ele>73</ele>
        <time>2023-10-30T09:46:50Z</time>
      </trkpt>
      <trkpt lat="46.65835" lon="-0.91557">
        <ele>70</ele>
        <time>2023-10-30T09:49:37Z</time>
      </trkpt>
      <trkpt lat="46.65874" lon="-0.91675">
        <ele>65</ele>
        <time>2023-10-30T09:51:37Z</time>
      </trkpt>
      <trkpt lat="46.65936" lon="-0.91742">
        <ele>63</ele>
        <time>2023-10-30T09:53:20Z</time>
      </trkpt>
      <trkpt lat="46.66154" lon="-0.91625">
        <ele>58</ele>
        <time>2023-10-30T09:58:30Z</time>
      </trkpt>
      <trkpt lat="46.66148" lon="-0.9156">
        <ele>59</ele>
        <time>2023-10-30T09:59:30Z</time>
      </trkpt>
      <trkpt lat="46.66156" lon="-0.91507">
        <ele>58</ele>
        <time>2023-10-30T10:00:19Z</time>
      </trkpt>
      <trkpt lat="46.66192" lon="-0.91472">
        <ele>60</ele>
        <time>2023-10-30T10:01:17Z</time>
      </trkpt>
      <trkpt lat="46.66247" lon="-0.91448">
        <ele>62</ele>
        <time>2023-10-30T10:02:34Z</time>
      </trkpt>
      <trkpt lat="46.66278" lon="-0.91416">
        <ele>63</ele>
        <time>2023-10-30T10:03:24Z</time>
      </trkpt>
      <trkpt lat="46.66297" lon="-0.91366">
        <ele>64</ele>
        <time>2023-10-30T10:04:17Z</time>
      </trkpt>
      <trkpt lat="46.66354" lon="-0.91315">
        <ele>66</ele>
        <time>2023-10-30T10:05:46Z</time>
      </trkpt>
      <trkpt lat="46.66382" lon="-0.91272">
        <ele>68</ele>
        <time>2023-10-30T10:06:40Z</time>
      </trkpt>
      <trkpt lat="46.66471" lon="-0.91115">
        <ele>68</ele>
        <time>2023-10-30T10:09:47Z</time>
      </trkpt>
      <trkpt lat="46.66527" lon="-0.90993">
        <ele>69</ele>
        <time>2023-10-30T10:12:01Z</time>
      </trkpt>
      <trkpt lat="46.66912" lon="-0.90656">
        <ele>83</ele>
        <time>2023-10-30T10:22:01Z</time>
      </trkpt>
      <trkpt lat="46.67469" lon="-0.90111">
        <ele>79</ele>
        <time>2023-10-30T10:36:56Z</time>
      </trkpt>
      <trkpt lat="46.67554" lon="-0.90186">
        <ele>83</ele>
        <time>2023-10-30T10:39:08Z</time>
      </trkpt>
      <trkpt lat="46.67624" lon="-0.90309">
        <ele>86</ele>
        <time>2023-10-30T10:41:35Z</time>
      </trkpt>
      <trkpt lat="46.67688" lon="-0.90369">
        <ele>87</ele>
        <time>2023-10-30T10:43:16Z</time>
      </trkpt>
      <trkpt lat="46.67812" lon="-0.90371">
        <ele>86</ele>
        <time>2023-10-30T10:46:02Z</time>
      </trkpt>
      <trkpt lat="46.67942" lon="-0.90397">
        <ele>82</ele>
        <time>2023-10-30T10:48:57Z</time>
      </trkpt>
      <trkpt lat="46.67856" lon="-0.90073">
        <ele>90</ele>
        <time>2023-10-30T10:54:15Z</time>
      </trkpt>
      <trkpt lat="46.67915" lon="-0.89963">
        <ele>93</ele>
        <time>2023-10-30T10:56:23Z</time>
      </trkpt>
      <trkpt lat="46.6793" lon="-0.89877">
        <ele>97</ele>
        <time>2023-10-30T10:57:44Z</time>
      </trkpt>
      <trkpt lat="46.6798" lon="-0.89727">
        <ele>105</ele>
        <time>2023-10-30T11:00:17Z</time>
      </trkpt>
      <trkpt lat="46.68014" lon="-0.89701">
        <ele>106</ele>
        <time>2023-10-30T11:01:08Z</time>
      </trkpt>
      <trkpt lat="46.68099" lon="-0.89684">
        <ele>105</ele>
        <time>2023-10-30T11:03:02Z</time>
      </trkpt>
      <trkpt lat="46.68173" lon="-0.89684">
        <ele>103</ele>
        <time>2023-10-30T11:04:41Z</time>
      </trkpt>
      <trkpt lat="46.68237" lon="-0.89671">
        <ele>101</ele>
        <time>2023-10-30T11:06:07Z</time>
      </trkpt>
      <trkpt lat="46.68305" lon="-0.89639">
        <ele>97</ele>
        <time>2023-10-30T11:07:43Z</time>
      </trkpt>
      <trkpt lat="46.68346" lon="-0.89562">
        <ele>98</ele>
        <time>2023-10-30T11:09:12Z</time>
      </trkpt>
      <trkpt lat="46.68198" lon="-0.89425">
        <ele>102</ele>
        <time>2023-10-30T11:13:06Z</time>
      </trkpt>
      <trkpt lat="46.68105" lon="-0.89296">
        <ele>107</ele>
        <time>2023-10-30T11:15:57Z</time>
      </trkpt>
      <trkpt lat="46.68096" lon="-0.89253">
        <ele>107</ele>
        <time>2023-10-30T11:16:38Z</time>
      </trkpt>
      <trkpt lat="46.68148" lon="-0.89064">
        <ele>103</ele>
        <time>2023-10-30T11:19:45Z</time>
      </trkpt>
      <trkpt lat="46.68327" lon="-0.88847">
        <ele>103</ele>
        <time>2023-10-30T11:24:56Z</time>
      </trkpt>
      <trkpt lat="46.68373" lon="-0.88761">
        <ele>101</ele>
        <time>2023-10-30T11:26:35Z</time>
      </trkpt>
      <trkpt lat="46.68383" lon="-0.88697">
        <ele>101</ele>
        <time>2023-10-30T11:27:35Z</time>
      </trkpt>
      <trkpt lat="46.68402" lon="-0.88607">
        <ele>106</ele>
        <time>2023-10-30T11:29:02Z</time>
      </trkpt>
      <trkpt lat="46.68229" lon="-0.88545">
        <ele>105</ele>
        <time>2023-10-30T11:32:59Z</time>
      </trkpt>
      <trkpt lat="46.68052" lon="-0.8853">
        <ele>108</ele>
        <time>2023-10-30T11:36:56Z</time>
      </trkpt>
      <trkpt lat="46.67934" lon="-0.88489">
        <ele>110</ele>
        <time>2023-10-30T11:39:38Z</time>
      </trkpt>
      <trkpt lat="46.67946" lon="-0.88386">
        <ele>109</ele>
        <time>2023-10-30T11:41:14Z</time>
      </trkpt>
      <trkpt lat="46.67978" lon="-0.88347">
        <ele>110</ele>
        <time>2023-10-30T11:42:09Z</time>
      </trkpt>
      <trkpt lat="46.67977" lon="-0.88302">
        <ele>110</ele>
        <time>2023-10-30T11:42:50Z</time>
      </trkpt>
      <trkpt lat="46.67959" lon="-0.88223">
        <ele>109</ele>
        <time>2023-10-30T11:44:07Z</time>
      </trkpt>
      <trkpt lat="46.67981" lon="-0.88171">
        <ele>110</ele>
        <time>2023-10-30T11:45:03Z</time>
      </trkpt>
      <trkpt lat="46.67983" lon="-0.88079">
        <ele>112</ele>
        <time>2023-10-30T11:46:27Z</time>
      </trkpt>
      <trkpt lat="46.68006" lon="-0.87942">
        <ele>116</ele>
        <time>2023-10-30T11:48:36Z</time>
      </trkpt>
      <trkpt lat="46.68087" lon="-0.87871">
        <ele>118</ele>
        <time>2023-10-30T11:50:42Z</time>
      </trkpt>
      <trkpt lat="46.68099" lon="-0.878">
        <ele>119</ele>
        <time>2023-10-30T11:51:49Z</time>
      </trkpt>
      <trkpt lat="46.68126" lon="-0.87723">
        <ele>120</ele>
        <time>2023-10-30T11:53:08Z</time>
      </trkpt>
      <trkpt lat="46.68192" lon="-0.87644">
        <ele>121</ele>
        <time>2023-10-30T11:55:02Z</time>
      </trkpt>
      <trkpt lat="46.68271" lon="-0.87538">
        <ele>126</ele>
        <time>2023-10-30T11:57:25Z</time>
      </trkpt>
      <trkpt lat="46.68261" lon="-0.87502">
        <ele>126</ele>
        <time>2023-10-30T11:58:01Z</time>
      </trkpt>
      <trkpt lat="46.68255" lon="-0.87455">
        <ele>126</ele>
        <time>2023-10-30T11:58:45Z</time>
      </trkpt>
      <trkpt lat="46.68282" lon="-0.87403">
        <ele>126</ele>
        <time>2023-10-30T11:59:44Z</time>
      </trkpt>
      <trkpt lat="46.68293" lon="-0.87356">
        <ele>126</ele>
        <time>2023-10-30T12:00:30Z</time>
      </trkpt>
      <trkpt lat="46.6828" lon="-0.87195">
        <ele>124</ele>
        <time>2023-10-30T12:02:58Z</time>
      </trkpt>
      <trkpt lat="46.68277" lon="-0.87107">
        <ele>123</ele>
        <time>2023-10-30T12:04:19Z</time>
      </trkpt>
      <trkpt lat="46.68288" lon="-0.87017">
        <ele>123</ele>
        <time>2023-10-30T12:05:43Z</time>
      </trkpt>
      <trkpt lat="46.68318" lon="-0.86959">
        <ele>124</ele>
        <time>2023-10-30T12:06:49Z</time>
      </trkpt>
      <trkpt lat="46.68351" lon="-0.86867">
        <ele>123</ele>
        <time>2023-10-30T12:08:24Z</time>
      </trkpt>
      <trkpt lat="46.68388" lon="-0.86867">
        <ele>124</ele>
        <time>2023-10-30T12:09:14Z</time>
      </trkpt>
      <trkpt lat="46.68413" lon="-0.8685">
        <ele>125</ele>
        <time>2023-10-30T12:09:50Z</time>
      </trkpt>
      <trkpt lat="46.68552" lon="-0.86667">
        <ele>137</ele>
        <time>2023-10-30T12:14:00Z</time>
      </trkpt>
      <trkpt lat="46.6852" lon="-0.8659">
        <ele>138</ele>
        <time>2023-10-30T12:15:23Z</time>
      </trkpt>
      <trkpt lat="46.68491" lon="-0.86444">
        <ele>138</ele>
        <time>2023-10-30T12:17:42Z</time>
      </trkpt>
      <trkpt lat="46.68379" lon="-0.86137">
        <ele>134</ele>
        <time>2023-10-30T12:23:00Z</time>
      </trkpt>
      <trkpt lat="46.68242" lon="-0.85893">
        <ele>134</ele>
        <time>2023-10-30T12:27:49Z</time>
      </trkpt>
      <trkpt lat="46.68207" lon="-0.85845">
        <ele>131</ele>
        <time>2023-10-30T12:28:53Z</time>
      </trkpt>
      <trkpt lat="46.68236" lon="-0.85697">
        <ele>134</ele>
        <time>2023-10-30T12:31:14Z</time>
      </trkpt>
      <trkpt lat="46.68274" lon="-0.8562">
        <ele>134</ele>
        <time>2023-10-30T12:32:41Z</time>
      </trkpt>
      <trkpt lat="46.68298" lon="-0.85536">
        <ele>134</ele>
        <time>2023-10-30T12:34:04Z</time>
      </trkpt>
      <trkpt lat="46.68315" lon="-0.85315">
        <ele>132</ele>
        <time>2023-10-30T12:37:28Z</time>
      </trkpt>
      <trkpt lat="46.68173" lon="-0.85367">
        <ele>127</ele>
        <time>2023-10-30T12:40:43Z</time>
      </trkpt>
      <trkpt lat="46.68042" lon="-0.85403">
        <ele>122</ele>
        <time>2023-10-30T12:43:41Z</time>
      </trkpt>
      <trkpt lat="46.68018" lon="-0.85397">
        <ele>120</ele>
        <time>2023-10-30T12:44:13Z</time>
      </trkpt>
      <trkpt lat="46.68003" lon="-0.85418">
        <ele>119</ele>
        <time>2023-10-30T12:44:41Z</time>
      </trkpt>
      <trkpt lat="46.67822" lon="-0.85517">
        <ele>112</ele>
        <time>2023-10-30T12:48:59Z</time>
      </trkpt>
      <trkpt lat="46.67737" lon="-0.85406">
        <ele>109</ele>
        <time>2023-10-30T12:51:31Z</time>
      </trkpt>
      <trkpt lat="46.67744" lon="-0.85152">
        <ele>113</ele>
        <time>2023-10-30T12:55:24Z</time>
      </trkpt>
      <trkpt lat="46.67737" lon="-0.84976">
        <ele>114</ele>
        <time>2023-10-30T12:58:06Z</time>
      </trkpt>
      <trkpt lat="46.67687" lon="-0.84848">
        <ele>109</ele>
        <time>2023-10-30T13:00:21Z</time>
      </trkpt>
      <trkpt lat="46.67635" lon="-0.84779">
        <ele>105</ele>
        <time>2023-10-30T13:01:54Z</time>
      </trkpt>
      <trkpt lat="46.67665" lon="-0.84766">
        <ele>107</ele>
        <time>2023-10-30T13:02:36Z</time>
      </trkpt>
      <trkpt lat="46.67691" lon="-0.84715">
        <ele>107</ele>
        <time>2023-10-30T13:03:34Z</time>
      </trkpt>
      <trkpt lat="46.67652" lon="-0.84646">
        <ele>105</ele>
        <time>2023-10-30T13:04:56Z</time>
      </trkpt>
      <trkpt lat="46.67619" lon="-0.84612">
        <ele>104</ele>
        <time>2023-10-30T13:05:50Z</time>
      </trkpt>
      <trkpt lat="46.67618" lon="-0.84586">
        <ele>105</ele>
        <time>2023-10-30T13:06:14Z</time>
      </trkpt>
      <trkpt lat="46.67601" lon="-0.84558">
        <ele>107</ele>
        <time>2023-10-30T13:06:48Z</time>
      </trkpt>
      <trkpt lat="46.67621" lon="-0.84466">
        <ele>112</ele>
        <time>2023-10-30T13:08:17Z</time>
      </trkpt>
      <trkpt lat="46.67637" lon="-0.84431">
        <ele>112</ele>
        <time>2023-10-30T13:08:55Z</time>
      </trkpt>
      <trkpt lat="46.67609" lon="-0.84397">
        <ele>116</ele>
        <time>2023-10-30T13:09:44Z</time>
      </trkpt>
      <trkpt lat="46.67622" lon="-0.84296">
        <ele>119</ele>
        <time>2023-10-30T13:11:18Z</time>
      </trkpt>
      <trkpt lat="46.67572" lon="-0.84107">
        <ele>131</ele>
        <time>2023-10-30T13:14:23Z</time>
      </trkpt>
      <trkpt lat="46.67551" lon="-0.84043">
        <ele>129</ele>
        <time>2023-10-30T13:15:28Z</time>
      </trkpt>
      <trkpt lat="46.67546" lon="-0.83938">
        <ele>128</ele>
        <time>2023-10-30T13:17:05Z</time>
      </trkpt>
      <trkpt lat="46.67572" lon="-0.83713">
        <ele>139</ele>
        <time>2023-10-30T13:20:33Z</time>
      </trkpt>
      <trkpt lat="46.67563" lon="-0.83648">
        <ele>142</ele>
        <time>2023-10-30T13:21:34Z</time>
      </trkpt>
      <trkpt lat="46.67528" lon="-0.83537">
        <ele>146</ele>
        <time>2023-10-30T13:23:26Z</time>
      </trkpt>
      <trkpt lat="46.67463" lon="-0.83391">
        <ele>152</ele>
        <time>2023-10-30T13:26:05Z</time>
      </trkpt>
      <trkpt lat="46.67432" lon="-0.83232">
        <ele>163</ele>
        <time>2023-10-30T13:28:37Z</time>
      </trkpt>
      <trkpt lat="46.67401" lon="-0.83148">
        <ele>168</ele>
        <time>2023-10-30T13:30:04Z</time>
      </trkpt>
      <trkpt lat="46.67389" lon="-0.83095">
        <ele>170</ele>
        <time>2023-10-30T13:30:55Z</time>
      </trkpt>
      <trkpt lat="46.67329" lon="-0.82919">
        <ele>177</ele>
        <time>2023-10-30T13:33:55Z</time>
      </trkpt>
      <trkpt lat="46.67297" lon="-0.82773">
        <ele>176</ele>
        <time>2023-10-30T13:36:15Z</time>
      </trkpt>
      <trkpt lat="46.67253" lon="-0.82665">
        <ele>179</ele>
        <time>2023-10-30T13:38:10Z</time>
      </trkpt>
      <trkpt lat="46.67201" lon="-0.82569">
        <ele>173</ele>
        <time>2023-10-30T13:40:02Z</time>
      </trkpt>
      <trkpt lat="46.6711" lon="-0.82264">
        <ele>176</ele>
        <time>2023-10-30T13:45:07Z</time>
      </trkpt>
      <trkpt lat="46.67079" lon="-0.82185">
        <ele>179</ele>
        <time>2023-10-30T13:46:30Z</time>
      </trkpt>
      <trkpt lat="46.67049" lon="-0.82135">
        <ele>175</ele>
        <time>2023-10-30T13:47:31Z</time>
      </trkpt>
      <trkpt lat="46.67014" lon="-0.82015">
        <ele>176</ele>
        <time>2023-10-30T13:49:31Z</time>
      </trkpt>
      <trkpt lat="46.67014" lon="-0.81966">
        <ele>177</ele>
        <time>2023-10-30T13:50:15Z</time>
      </trkpt>
      <trkpt lat="46.66974" lon="-0.81884">
        <ele>175</ele>
        <time>2023-10-30T13:51:48Z</time>
      </trkpt>
      <trkpt lat="46.6694" lon="-0.81859">
        <ele>171</ele>
        <time>2023-10-30T13:52:38Z</time>
      </trkpt>
      <trkpt lat="46.66946" lon="-0.81794">
        <ele>171</ele>
        <time>2023-10-30T13:53:38Z</time>
      </trkpt>
      <trkpt lat="46.66988" lon="-0.81775">
        <ele>174</ele>
        <time>2023-10-30T13:54:37Z</time>
      </trkpt>
      <trkpt lat="46.6701" lon="-0.81751">
        <ele>172</ele>
        <time>2023-10-30T13:55:14Z</time>
      </trkpt>
      <trkpt lat="46.67018" lon="-0.81719">
        <ele>170</ele>
        <time>2023-10-30T13:55:45Z</time>
      </trkpt>
      <trkpt lat="46.66958" lon="-0.81597">
        <ele>170</ele>
        <time>2023-10-30T13:58:02Z</time>
      </trkpt>
      <trkpt lat="46.66927" lon="-0.81515">
        <ele>171</ele>
        <time>2023-10-30T13:59:28Z</time>
      </trkpt>
      <trkpt lat="46.66886" lon="-0.81457">
        <ele>168</ele>
        <time>2023-10-30T14:00:44Z</time>
      </trkpt>
      <trkpt lat="46.6689" lon="-0.81432">
        <ele>167</ele>
        <time>2023-10-30T14:01:08Z</time>
      </trkpt>
      <trkpt lat="46.66842" lon="-0.81348">
        <ele>165</ele>
        <time>2023-10-30T14:02:48Z</time>
      </trkpt>
      <trkpt lat="46.66855" lon="-0.81303">
        <ele>166</ele>
        <time>2023-10-30T14:03:33Z</time>
      </trkpt>
      <trkpt lat="46.66887" lon="-0.81241">
        <ele>163</ele>
        <time>2023-10-30T14:04:44Z</time>
      </trkpt>
      <trkpt lat="46.66845" lon="-0.81114">
        <ele>161</ele>
        <time>2023-10-30T14:06:53Z</time>
      </trkpt>
      <trkpt lat="46.66842" lon="-0.81058">
        <ele>155</ele>
        <time>2023-10-30T14:07:44Z</time>
      </trkpt>
      <trkpt lat="46.66864" lon="-0.80972">
        <ele>142</ele>
        <time>2023-10-30T14:09:08Z</time>
      </trkpt>
      <trkpt lat="46.66886" lon="-0.80927">
        <ele>136</ele>
        <time>2023-10-30T14:09:59Z</time>
      </trkpt>
      <trkpt lat="46.66801" lon="-0.80893">
        <ele>135</ele>
        <time>2023-10-30T14:11:57Z</time>
      </trkpt>
      <trkpt lat="46.66755" lon="-0.80869">
        <ele>133</ele>
        <time>2023-10-30T14:13:02Z</time>
      </trkpt>
      <trkpt lat="46.6669" lon="-0.80889">
        <ele>128</ele>
        <time>2023-10-30T14:14:30Z</time>
      </trkpt>
      <trkpt lat="46.66631" lon="-0.80895">
        <ele>121</ele>
        <time>2023-10-30T14:15:49Z</time>
      </trkpt>
      <trkpt lat="46.6648" lon="-0.80966">
        <ele>106</ele>
        <time>2023-10-30T14:19:21Z</time>
      </trkpt>
      <trkpt lat="46.66457" lon="-0.80957">
        <ele>105</ele>
        <time>2023-10-30T14:19:53Z</time>
      </trkpt>
      <trkpt lat="46.66416" lon="-0.80912">
        <ele>100</ele>
        <time>2023-10-30T14:21:01Z</time>
      </trkpt>
      <trkpt lat="46.66432" lon="-0.80777">
        <ele>95</ele>
        <time>2023-10-30T14:23:07Z</time>
      </trkpt>
      <trkpt lat="46.6646" lon="-0.80734">
        <ele>96</ele>
        <time>2023-10-30T14:24:01Z</time>
      </trkpt>
      <trkpt lat="46.66463" lon="-0.80706">
        <ele>96</ele>
        <time>2023-10-30T14:24:27Z</time>
      </trkpt>
      <trkpt lat="46.66513" lon="-0.80687">
        <ele>96</ele>
        <time>2023-10-30T14:25:36Z</time>
      </trkpt>
      <trkpt lat="46.6655" lon="-0.80552">
        <ele>95</ele>
        <time>2023-10-30T14:27:49Z</time>
      </trkpt>
      <trkpt lat="46.66544" lon="-0.80485">
        <ele>98</ele>
        <time>2023-10-30T14:28:51Z</time>
      </trkpt>
      <trkpt lat="46.66524" lon="-0.80425">
        <ele>103</ele>
        <time>2023-10-30T14:29:52Z</time>
      </trkpt>
      <trkpt lat="46.66566" lon="-0.80369">
        <ele>105</ele>
        <time>2023-10-30T14:31:08Z</time>
      </trkpt>
      <trkpt lat="46.66614" lon="-0.80335">
        <ele>109</ele>
        <time>2023-10-30T14:32:19Z</time>
      </trkpt>
      <trkpt lat="46.6663" lon="-0.80286">
        <ele>113</ele>
        <time>2023-10-30T14:33:09Z</time>
      </trkpt>
      <trkpt lat="46.66675" lon="-0.80174">
        <ele>120</ele>
        <time>2023-10-30T14:35:08Z</time>
      </trkpt>
      <trkpt lat="46.66695" lon="-0.80146">
        <ele>122</ele>
        <time>2023-10-30T14:35:45Z</time>
      </trkpt>
      <trkpt lat="46.66845" lon="-0.80101">
        <ele>119</ele>
        <time>2023-10-30T14:39:09Z</time>
      </trkpt>
      <trkpt lat="46.66724" lon="-0.79749">
        <ele>126</ele>
        <time>2023-10-30T14:45:10Z</time>
      </trkpt>
      <trkpt lat="46.66767" lon="-0.79657">
        <ele>126</ele>
        <time>2023-10-30T14:46:52Z</time>
      </trkpt>
      <trkpt lat="46.66783" lon="-0.79588">
        <ele>127</ele>
        <time>2023-10-30T14:47:58Z</time>
      </trkpt>
      <trkpt lat="46.6678" lon="-0.79515">
        <ele>126</ele>
        <time>2023-10-30T14:49:05Z</time>
      </trkpt>
      <trkpt lat="46.66786" lon="-0.79404">
        <ele>123</ele>
        <time>2023-10-30T14:50:47Z</time>
      </trkpt>
      <trkpt lat="46.66802" lon="-0.79305">
        <ele>116</ele>
        <time>2023-10-30T14:52:20Z</time>
      </trkpt>
      <trkpt lat="46.66826" lon="-0.79297">
        <ele>116</ele>
        <time>2023-10-30T14:52:53Z</time>
      </trkpt>
      <trkpt lat="46.66882" lon="-0.79256">
        <ele>113</ele>
        <time>2023-10-30T14:54:17Z</time>
      </trkpt>
      <trkpt lat="46.66912" lon="-0.79206">
        <ele>109</ele>
        <time>2023-10-30T14:55:18Z</time>
      </trkpt>
      <trkpt lat="46.66896" lon="-0.79155">
        <ele>106</ele>
        <time>2023-10-30T14:56:09Z</time>
      </trkpt>
      <trkpt lat="46.66882" lon="-0.79067">
        <ele>106</ele>
        <time>2023-10-30T14:57:32Z</time>
      </trkpt>
      <trkpt lat="46.66845" lon="-0.79067">
        <ele>106</ele>
        <time>2023-10-30T14:58:21Z</time>
      </trkpt>
      <trkpt lat="46.66795" lon="-0.79076">
        <ele>105</ele>
        <time>2023-10-30T14:59:28Z</time>
      </trkpt>
      <trkpt lat="46.66752" lon="-0.79037">
        <ele>105</ele>
        <time>2023-10-30T15:00:36Z</time>
      </trkpt>
      <trkpt lat="46.66686" lon="-0.79005">
        <ele>107</ele>
        <time>2023-10-30T15:02:09Z</time>
      </trkpt>
      <trkpt lat="46.66577" lon="-0.79011">
        <ele>109</ele>
        <time>2023-10-30T15:04:34Z</time>
      </trkpt>
      <trkpt lat="46.66493" lon="-0.78983">
        <ele>116</ele>
        <time>2023-10-30T15:06:29Z</time>
      </trkpt>
      <trkpt lat="46.66447" lon="-0.7855">
        <ele>148</ele>
        <time>2023-10-30T15:13:11Z</time>
      </trkpt>
      <trkpt lat="46.66465" lon="-0.78535">
        <ele>148</ele>
        <time>2023-10-30T15:13:38Z</time>
      </trkpt>
      <trkpt lat="46.66485" lon="-0.78503">
        <ele>150</ele>
        <time>2023-10-30T15:14:18Z</time>
      </trkpt>
      <trkpt lat="46.66519" lon="-0.78307">
        <ele>159</ele>
        <time>2023-10-30T15:17:23Z</time>
      </trkpt>
      <trkpt lat="46.66482" lon="-0.78168">
        <ele>167</ele>
        <time>2023-10-30T15:19:40Z</time>
      </trkpt>
      <trkpt lat="46.66491" lon="-0.78099">
        <ele>170</ele>
        <time>2023-10-30T15:20:44Z</time>
      </trkpt>
      <trkpt lat="46.66482" lon="-0.78011">
        <ele>173</ele>
        <time>2023-10-30T15:22:05Z</time>
      </trkpt>
      <trkpt lat="46.66454" lon="-0.77943">
        <ele>175</ele>
        <time>2023-10-30T15:23:18Z</time>
      </trkpt>
      <trkpt lat="46.66465" lon="-0.77887">
        <ele>176</ele>
        <time>2023-10-30T15:24:11Z</time>
      </trkpt>
      <trkpt lat="46.66438" lon="-0.77689">
        <ele>185</ele>
        <time>2023-10-30T15:27:16Z</time>
      </trkpt>
      <trkpt lat="46.66435" lon="-0.77601">
        <ele>185</ele>
        <time>2023-10-30T15:28:37Z</time>
      </trkpt>
      <trkpt lat="46.66438" lon="-0.77507">
        <ele>180</ele>
        <time>2023-10-30T15:30:03Z</time>
      </trkpt>
      <trkpt lat="46.66459" lon="-0.77494">
        <ele>175</ele>
        <time>2023-10-30T15:30:34Z</time>
      </trkpt>
      <trkpt lat="46.66421" lon="-0.77277">
        <ele>166</ele>
        <time>2023-10-30T15:33:59Z</time>
      </trkpt>
      <trkpt lat="46.66382" lon="-0.77177">
        <ele>163</ele>
        <time>2023-10-30T15:35:44Z</time>
      </trkpt>
      <trkpt lat="46.66528" lon="-0.77211">
        <ele>152</ele>
        <time>2023-10-30T15:39:01Z</time>
      </trkpt>
      <trkpt lat="46.66572" lon="-0.772">
        <ele>150</ele>
        <time>2023-10-30T15:40:01Z</time>
      </trkpt>
      <trkpt lat="46.66653" lon="-0.77275">
        <ele>149</ele>
        <time>2023-10-30T15:42:09Z</time>
      </trkpt>
      <trkpt lat="46.66714" lon="-0.77346">
        <ele>152</ele>
        <time>2023-10-30T15:43:53Z</time>
      </trkpt>
      <trkpt lat="46.66918" lon="-0.77185">
        <ele>161</ele>
        <time>2023-10-30T15:49:03Z</time>
      </trkpt>
      <trkpt lat="46.66998" lon="-0.77166">
        <ele>157</ele>
        <time>2023-10-30T15:50:51Z</time>
      </trkpt>
      <trkpt lat="46.67074" lon="-0.77086">
        <ele>146</ele>
        <time>2023-10-30T15:52:56Z</time>
      </trkpt>
      <trkpt lat="46.67148" lon="-0.77086">
        <ele>140</ele>
        <time>2023-10-30T15:54:35Z</time>
      </trkpt>
      <trkpt lat="46.67233" lon="-0.77041">
        <ele>139</ele>
        <time>2023-10-30T15:56:35Z</time>
      </trkpt>
      <trkpt lat="46.67323" lon="-0.76887">
        <ele>150</ele>
        <time>2023-10-30T15:59:41Z</time>
      </trkpt>
      <trkpt lat="46.67415" lon="-0.7678">
        <ele>157</ele>
        <time>2023-10-30T16:02:18Z</time>
      </trkpt>
      <trkpt lat="46.67463" lon="-0.76704">
        <ele>156</ele>
        <time>2023-10-30T16:03:52Z</time>
      </trkpt>
      <trkpt lat="46.67498" lon="-0.76722">
        <ele>156</ele>
        <time>2023-10-30T16:04:42Z</time>
      </trkpt>
      <trkpt lat="46.67526" lon="-0.76726">
        <ele>155</ele>
        <time>2023-10-30T16:05:19Z</time>
      </trkpt>
      <trkpt lat="46.67516" lon="-0.7667">
        <ele>154</ele>
        <time>2023-10-30T16:06:12Z</time>
      </trkpt>
      <trkpt lat="46.67575" lon="-0.76552">
        <ele>145</ele>
        <time>2023-10-30T16:08:26Z</time>
      </trkpt>
      <trkpt lat="46.67585" lon="-0.76468">
        <ele>141</ele>
        <time>2023-10-30T16:09:44Z</time>
      </trkpt>
      <trkpt lat="46.67635" lon="-0.76445">
        <ele>141</ele>
        <time>2023-10-30T16:10:54Z</time>
      </trkpt>
      <trkpt lat="46.67616" lon="-0.76398">
        <ele>140</ele>
        <time>2023-10-30T16:11:44Z</time>
      </trkpt>
      <trkpt lat="46.67553" lon="-0.76383">
        <ele>141</ele>
        <time>2023-10-30T16:13:09Z</time>
      </trkpt>
      <trkpt lat="46.67506" lon="-0.76286">
        <ele>146</ele>
        <time>2023-10-30T16:14:58Z</time>
      </trkpt>
      <trkpt lat="46.6749" lon="-0.76237">
        <ele>148</ele>
        <time>2023-10-30T16:15:48Z</time>
      </trkpt>
      <trkpt lat="46.67484" lon="-0.76159">
        <ele>150</ele>
        <time>2023-10-30T16:17:00Z</time>
      </trkpt>
      <trkpt lat="46.67406" lon="-0.76009">
        <ele>157</ele>
        <time>2023-10-30T16:19:52Z</time>
      </trkpt>
      <trkpt lat="46.67311" lon="-0.75913">
        <ele>157</ele>
        <time>2023-10-30T16:22:26Z</time>
      </trkpt>
      <trkpt lat="46.67289" lon="-0.7584">
        <ele>157</ele>
        <time>2023-10-30T16:23:39Z</time>
      </trkpt>
      <trkpt lat="46.67282" lon="-0.75777">
        <ele>157</ele>
        <time>2023-10-30T16:24:38Z</time>
      </trkpt>
      <trkpt lat="46.67257" lon="-0.75726">
        <ele>156</ele>
        <time>2023-10-30T16:25:35Z</time>
      </trkpt>
      <trkpt lat="46.67188" lon="-0.7567">
        <ele>152</ele>
        <time>2023-10-30T16:27:20Z</time>
      </trkpt>
    </trkseg>
  </trk>
</gpx>